createdAt,value
2018-07-20T00:01:59.672Z,4.70
2018-07-20T00:04:27.735Z,3.55
2018-07-20T00:06:55.761Z,3.47
2018-07-20T00:09:23.784Z,4.62
2018-07-20T00:11:51.816Z,3.72
2018-07-20T00:14:19.848Z,4.30
2018-07-20T00:16:47.896Z,4.78
2018-07-20T00:19:15.930Z,3.75
2018-07-20T00:21:43.979Z,4.05
2018-07-20T00:24:12.015Z,3.17
2018-07-20T00:26:40.063Z,1.60
2018-07-20T00:29:08.092Z,2.95
2018-07-20T00:31:36.217Z,3.30
2018-07-20T00:34:04.276Z,2.83
2018-07-20T00:36:32.296Z,2.67
2018-07-20T00:39:00.332Z,2.60
2018-07-20T00:41:28.364Z,2.72
2018-07-20T00:43:56.392Z,3.35
2018-07-20T00:46:24.405Z,2.27
2018-07-20T00:48:52.439Z,2.85
2018-07-20T00:51:20.515Z,2.92
2018-07-20T00:53:48.547Z,2.55
2018-07-20T00:56:16.576Z,2.45
2018-07-20T00:58:44.604Z,3.12
2018-07-20T01:01:12.655Z,2.87
2018-07-20T01:03:40.719Z,2.65
2018-07-20T01:06:08.753Z,2.22
2018-07-20T01:08:36.832Z,4.20
2018-07-20T01:11:05.057Z,2.00
2018-07-20T01:13:33.100Z,2.98
2018-07-20T01:16:01.147Z,3.12
2018-07-20T01:18:29.188Z,3.02
2018-07-20T01:20:57.223Z,3.05
2018-07-20T01:23:25.276Z,1.75
2018-07-20T01:25:53.332Z,3.08
2018-07-20T01:28:21.363Z,5.42
2018-07-20T01:30:49.402Z,2.27
2018-07-20T01:33:17.456Z,2.27
2018-07-20T01:35:45.492Z,2.22
2018-07-20T01:38:13.520Z,2.22
2018-07-20T01:40:41.567Z,2.27
2018-07-20T01:43:09.972Z,1.80
2018-07-20T01:45:38.004Z,3.58
2018-07-20T01:48:06.031Z,3.92
2018-07-20T01:50:34.072Z,2.90
2018-07-20T01:53:02.119Z,2.30
2018-07-20T01:55:30.153Z,3.30
2018-07-20T01:57:58.247Z,3.15
2018-07-20T02:00:26.330Z,3.58
2018-07-20T02:02:54.361Z,2.02
2018-07-20T02:05:22.399Z,2.37
2018-07-20T02:07:50.424Z,2.95
2018-07-20T02:10:18.468Z,3.90
2018-07-20T02:12:46.698Z,3.15
2018-07-20T02:15:14.732Z,2.72
2018-07-20T02:17:42.776Z,2.35
2018-07-20T02:20:10.865Z,1.90
2018-07-20T02:22:38.901Z,4.30
2018-07-20T02:25:06.933Z,2.95
2018-07-20T02:27:34.981Z,3.77
2018-07-20T02:30:03.025Z,1.50
2018-07-20T02:32:31.058Z,1.70
2018-07-20T02:34:59.108Z,3.12
2018-07-20T02:37:27.163Z,2.90
2018-07-20T02:39:55.189Z,1.98
2018-07-20T02:42:23.212Z,2.70
2018-07-20T02:44:51.248Z,2.35
2018-07-20T02:47:19.284Z,3.15
2018-07-20T02:49:47.332Z,1.87
2018-07-20T02:52:15.369Z,3.50
2018-07-20T02:54:43.423Z,3.70
2018-07-20T02:57:11.450Z,2.55
2018-07-20T02:59:39.512Z,3.27
2018-07-20T03:02:07.559Z,1.25
2018-07-20T03:04:35.640Z,1.40
2018-07-20T03:07:03.672Z,3.17
2018-07-20T03:09:31.731Z,2.02
2018-07-20T03:11:59.768Z,3.10
2018-07-20T03:14:27.803Z,1.62
2018-07-20T03:16:55.820Z,2.52
2018-07-20T03:19:23.866Z,1.77
2018-07-20T03:21:51.892Z,2.75
2018-07-20T03:24:19.939Z,2.05
2018-07-20T03:26:47.969Z,2.67
2018-07-20T03:29:15.992Z,3.05
2018-07-20T03:31:44.038Z,2.27
2018-07-20T03:34:12.064Z,1.82
2018-07-20T03:36:40.125Z,3.02
2018-07-20T03:39:09.171Z,1.92
2018-07-20T03:41:38.020Z,3.10
2018-07-20T03:44:06.491Z,2.40
2018-07-20T03:46:34.567Z,2.00
2018-07-20T03:49:02.617Z,3.40
2018-07-20T03:51:30.683Z,3.10
2018-07-20T03:53:58.728Z,3.67
2018-07-20T03:56:26.795Z,2.35
2018-07-20T03:58:54.876Z,1.90
2018-07-20T04:01:22.916Z,3.02
2018-07-20T04:03:50.971Z,2.58
2018-07-20T04:06:19.008Z,2.12
2018-07-20T04:08:47.040Z,3.22
2018-07-20T04:11:15.076Z,2.15
2018-07-20T04:13:43.132Z,2.52
2018-07-20T04:16:11.164Z,2.60
2018-07-20T04:18:39.209Z,3.02
2018-07-20T04:21:07.319Z,3.65
2018-07-20T04:23:35.347Z,2.75
2018-07-20T04:26:03.383Z,2.40
2018-07-20T04:28:31.408Z,1.92
2018-07-20T04:30:59.452Z,2.55
2018-07-20T04:33:27.496Z,2.22
2018-07-20T04:35:55.566Z,2.17
2018-07-20T04:38:23.583Z,3.12
2018-07-20T04:40:51.624Z,2.10
2018-07-20T04:43:19.647Z,2.95
2018-07-20T04:45:47.711Z,2.65
2018-07-20T04:48:15.744Z,3.77
2018-07-20T04:50:43.815Z,2.62
2018-07-20T04:53:11.851Z,1.98
2018-07-20T04:55:39.888Z,3.02
2018-07-20T04:58:07.908Z,3.05
2018-07-20T05:00:35.965Z,2.35
2018-07-20T05:03:04.000Z,1.87
2018-07-20T05:05:32.075Z,4.50
2018-07-20T05:08:00.096Z,2.40
2018-07-20T05:10:28.123Z,3.33
2018-07-20T05:12:56.183Z,3.47
2018-07-20T05:15:24.200Z,2.15
2018-07-20T05:17:52.243Z,3.33
2018-07-20T05:20:20.275Z,4.47
2018-07-20T05:22:48.316Z,2.90
2018-07-20T05:25:16.369Z,2.90
2018-07-20T05:27:44.409Z,3.10
2018-07-20T05:30:12.445Z,3.65
2018-07-20T05:32:40.557Z,5.60
2018-07-20T05:35:08.523Z,3.90
2018-07-20T05:37:36.564Z,2.50
2018-07-20T05:40:04.627Z,3.10
2018-07-20T05:42:32.738Z,3.90
2018-07-20T05:45:00.766Z,3.00
2018-07-20T05:47:28.799Z,3.10
2018-07-20T05:49:56.821Z,3.30
2018-07-20T05:52:24.883Z,2.80
2018-07-20T05:54:52.931Z,4.75
2018-07-20T05:57:20.972Z,4.03
2018-07-20T05:59:48.996Z,3.05
2018-07-20T06:02:17.298Z,5.20
2018-07-20T06:04:45.324Z,4.80
2018-07-20T06:07:13.379Z,3.95
2018-07-20T06:09:41.411Z,3.85
2018-07-20T06:12:09.475Z,3.98
2018-07-20T06:14:37.503Z,2.67
2018-07-20T06:17:05.622Z,3.33
2018-07-20T06:19:33.697Z,5.15
2018-07-20T06:22:01.733Z,3.90
2018-07-20T06:24:29.772Z,4.90
2018-07-20T06:26:57.806Z,3.52
2018-07-20T06:29:25.839Z,3.22
2018-07-20T06:31:53.873Z,2.40
2018-07-20T06:34:21.905Z,2.72
2018-07-20T06:36:49.944Z,4.35
2018-07-20T06:39:17.980Z,3.58
2018-07-20T06:41:46.056Z,3.50
2018-07-20T06:44:14.140Z,4.87
2018-07-20T06:46:42.171Z,3.55
2018-07-20T06:49:10.209Z,5.10
2018-07-20T06:51:38.323Z,4.45
2018-07-20T06:54:06.368Z,3.80
2018-07-20T06:56:34.476Z,2.80
2018-07-20T06:59:02.512Z,3.70
2018-07-20T07:01:30.651Z,4.42
2018-07-20T07:03:58.711Z,4.45
2018-07-20T07:06:26.844Z,3.90
2018-07-20T07:08:54.876Z,4.25
2018-07-20T07:11:22.904Z,2.75
2018-07-20T07:13:50.955Z,8.83
2018-07-20T07:16:19.012Z,6.10
2018-07-20T07:18:47.057Z,4.00
2018-07-20T07:21:15.103Z,4.15
2018-07-20T07:23:43.249Z,4.75
2018-07-20T07:26:11.212Z,3.40
2018-07-20T07:28:39.260Z,3.55
2018-07-20T07:31:07.779Z,5.03
2018-07-20T07:33:35.812Z,4.08
2018-07-20T07:36:03.868Z,5.37
2018-07-20T07:38:31.927Z,5.53
2018-07-20T07:40:59.960Z,7.65
2018-07-20T07:43:28.014Z,8.13
2018-07-20T07:45:56.080Z,6.15
2018-07-20T07:48:24.159Z,10.05
2018-07-20T07:50:52.263Z,6.58
2018-07-20T07:53:20.331Z,6.70
2018-07-20T07:55:48.392Z,11.08
2018-07-20T07:58:16.448Z,7.50
2018-07-20T08:00:44.493Z,10.45
2018-07-20T08:03:12.620Z,5.33
2018-07-20T08:05:40.595Z,12.37
2018-07-20T08:08:08.675Z,6.55
2018-07-20T08:10:36.747Z,8.05
2018-07-20T08:13:04.796Z,5.83
2018-07-20T08:15:32.859Z,5.15
2018-07-20T08:18:00.904Z,9.75
2018-07-20T08:20:28.940Z,9.23
2018-07-20T08:22:57.081Z,4.97
2018-07-20T08:25:25.051Z,10.53
2018-07-20T08:27:53.740Z,10.82
2018-07-20T08:30:21.780Z,12.10
2018-07-20T08:32:49.849Z,14.50
2018-07-20T08:35:17.931Z,13.10
2018-07-20T08:37:45.992Z,9.80
2018-07-20T08:40:14.061Z,15.65
2018-07-20T08:42:42.120Z,17.60
2018-07-20T08:45:10.175Z,14.75
2018-07-20T08:47:38.293Z,16.75
2018-07-20T08:50:06.591Z,13.75
2018-07-20T08:52:34.668Z,10.35
2018-07-20T08:55:02.716Z,16.67
2018-07-20T08:57:30.769Z,13.40
2018-07-20T08:59:58.923Z,7.78
2018-07-20T09:02:26.940Z,22.05
2018-07-20T09:04:55.000Z,18.32
2018-07-20T09:07:23.058Z,14.58
2018-07-20T09:09:51.128Z,12.80
2018-07-20T09:12:19.171Z,13.98
2018-07-20T09:14:47.245Z,14.23
2018-07-20T09:17:15.292Z,20.32
2018-07-20T09:19:43.390Z,11.90
2018-07-20T09:22:11.420Z,17.87
2018-07-20T09:24:39.503Z,18.62
2018-07-20T09:27:07.551Z,22.58
2018-07-20T09:29:35.624Z,19.77
2018-07-20T09:32:03.668Z,21.45
2018-07-20T09:34:31.808Z,27.07
2018-07-20T09:36:59.879Z,26.82
2018-07-20T09:39:27.967Z,26.60
2018-07-20T09:41:56.009Z,26.70
2018-07-20T09:44:24.100Z,24.65
2018-07-20T09:46:52.117Z,26.50
2018-07-20T09:49:20.167Z,32.25
2018-07-20T09:51:48.243Z,31.15
2018-07-20T09:54:16.299Z,27.15
2018-07-20T09:56:44.452Z,25.85
2018-07-20T09:59:12.552Z,28.50
2018-07-20T10:01:40.597Z,34.25
2018-07-20T10:04:08.667Z,28.02
2018-07-20T10:06:36.780Z,21.75
2018-07-20T10:09:08.075Z,39.45
2018-07-20T10:11:36.164Z,29.27
2018-07-20T10:14:04.204Z,47.43
2018-07-20T10:16:32.319Z,32.78
2018-07-20T10:19:00.416Z,37.05
2018-07-20T10:21:28.433Z,40.10
2018-07-20T10:23:56.503Z,43.58
2018-07-20T10:26:24.536Z,25.05
2018-07-20T10:28:52.592Z,21.73
2018-07-20T10:31:20.624Z,15.40
2018-07-20T10:33:48.681Z,38.08
2018-07-20T10:36:16.728Z,33.40
2018-07-20T10:38:44.772Z,31.27
2018-07-20T10:41:12.812Z,46.33
2018-07-20T10:43:40.883Z,31.25
2018-07-20T10:46:08.991Z,33.05
2018-07-20T10:48:37.033Z,34.00
2018-07-20T10:51:05.088Z,30.25
2018-07-20T10:53:33.155Z,35.08
2018-07-20T10:56:01.209Z,33.42
2018-07-20T10:58:29.283Z,35.10
2018-07-20T11:00:57.348Z,25.20
2018-07-20T11:03:25.393Z,45.05
2018-07-20T11:05:53.456Z,38.13
2018-07-20T11:08:21.523Z,26.02
2018-07-20T11:10:49.612Z,27.70
2018-07-20T11:13:17.652Z,35.70
2018-07-20T11:15:45.733Z,51.75
2018-07-20T11:18:13.772Z,52.23
2018-07-20T11:20:41.820Z,32.13
2018-07-20T11:23:09.924Z,42.13
2018-07-20T11:25:37.975Z,40.70
2018-07-20T11:28:06.068Z,44.53
2018-07-20T11:30:34.087Z,36.40
2018-07-20T11:33:02.131Z,38.50
2018-07-20T11:35:30.205Z,68.97
2018-07-20T11:37:58.271Z,59.40
2018-07-20T11:40:26.352Z,67.53
2018-07-20T11:42:54.448Z,40.95
2018-07-20T11:45:22.520Z,48.92
2018-07-20T11:47:50.579Z,44.93
2018-07-20T11:50:18.656Z,60.95
2018-07-20T11:52:46.732Z,55.15
2018-07-20T11:55:14.786Z,45.50
2018-07-20T11:57:42.868Z,60.98
2018-07-20T12:00:10.935Z,49.83
2018-07-20T12:02:39.004Z,44.53
2018-07-20T12:05:07.084Z,51.43
2018-07-20T12:07:35.139Z,66.57
2018-07-20T12:10:03.224Z,40.70
2018-07-20T12:12:31.285Z,66.73
2018-07-20T12:14:59.339Z,64.33
2018-07-20T12:17:27.404Z,47.40
2018-07-20T12:19:55.479Z,54.43
2018-07-20T12:22:24.313Z,63.43
2018-07-20T12:24:52.380Z,74.77
2018-07-20T12:27:20.424Z,51.20
2018-07-20T12:29:48.496Z,94.80
2018-07-20T12:32:16.580Z,72.33
2018-07-20T12:34:44.616Z,73.03
2018-07-20T12:37:12.691Z,64.43
2018-07-20T12:39:40.737Z,75.50
2018-07-20T12:42:08.783Z,74.73
2018-07-20T12:44:36.828Z,72.70
2018-07-20T12:47:04.904Z,75.60
2018-07-20T12:49:32.943Z,56.60
2018-07-20T12:52:01.001Z,46.07
2018-07-20T12:54:29.036Z,57.40
2018-07-20T12:56:57.085Z,63.37
2018-07-20T12:59:25.117Z,85.70
2018-07-20T13:01:53.193Z,63.97
2018-07-20T13:04:21.295Z,80.03
2018-07-20T13:06:49.340Z,66.67
2018-07-20T13:09:17.397Z,76.10
2018-07-20T13:11:45.550Z,75.47
2018-07-20T13:14:13.568Z,71.10
2018-07-20T13:16:42.239Z,71.57
2018-07-20T13:19:10.290Z,65.90
2018-07-20T13:21:38.391Z,72.73
2018-07-20T13:24:06.675Z,61.77
2018-07-20T13:26:34.735Z,82.77
2018-07-20T13:29:02.799Z,75.13
2018-07-20T13:31:30.863Z,90.50
2018-07-20T13:33:58.896Z,68.77
2018-07-20T13:36:26.975Z,89.13
2018-07-20T13:38:55.017Z,62.83
2018-07-20T13:41:23.068Z,73.80
2018-07-20T13:43:51.135Z,61.20
2018-07-20T13:46:19.210Z,64.67
2018-07-20T13:48:47.288Z,60.77
2018-07-20T13:51:15.361Z,54.00
2018-07-20T13:53:43.415Z,47.53
2018-07-20T13:56:11.493Z,62.83
2018-07-20T13:58:39.527Z,60.67
2018-07-20T14:01:07.590Z,55.43
2018-07-20T14:03:35.677Z,52.33
2018-07-20T14:06:03.768Z,66.40
2018-07-20T14:08:31.816Z,50.80
2018-07-20T14:10:59.867Z,68.23
2018-07-20T14:13:27.940Z,62.70
2018-07-20T14:15:55.980Z,80.03
2018-07-20T14:18:24.050Z,94.13
2018-07-20T14:20:52.131Z,102.47
2018-07-20T14:23:20.203Z,64.20
2018-07-20T14:25:48.247Z,80.93
2018-07-20T14:28:16.287Z,73.30
2018-07-20T14:30:44.422Z,66.47
2018-07-20T14:33:12.501Z,101.87
2018-07-20T14:35:40.551Z,85.30
2018-07-20T14:38:08.612Z,82.10
2018-07-20T14:40:36.668Z,64.90
2018-07-20T14:43:04.802Z,65.63
2018-07-20T14:45:32.811Z,72.00
2018-07-20T14:48:00.895Z,64.43
2018-07-20T14:50:28.940Z,75.70
2018-07-20T14:52:57.027Z,83.33
2018-07-20T14:55:25.076Z,81.43
2018-07-20T14:57:53.129Z,79.47
2018-07-20T15:00:21.188Z,64.40
2018-07-20T15:02:49.256Z,84.30
2018-07-20T15:05:17.314Z,69.60
2018-07-20T15:07:45.366Z,94.77
2018-07-20T15:10:13.426Z,72.97
2018-07-20T15:12:41.513Z,77.93
2018-07-20T15:15:09.784Z,117.97
2018-07-20T15:17:38.167Z,80.43
2018-07-20T15:20:06.316Z,101.57
2018-07-20T15:22:34.639Z,110.60
2018-07-20T15:25:02.672Z,84.20
2018-07-20T15:27:30.780Z,63.93
2018-07-20T15:29:58.823Z,92.70
2018-07-20T15:32:26.864Z,83.20
2018-07-20T15:34:54.924Z,76.77
2018-07-20T15:37:22.975Z,78.00
2018-07-20T15:39:51.085Z,96.10
2018-07-20T15:42:19.104Z,91.10
2018-07-20T15:44:47.220Z,59.47
2018-07-20T15:47:15.344Z,79.87
2018-07-20T15:49:43.337Z,85.93
2018-07-20T15:54:39.449Z,61.50
2018-07-20T15:57:07.636Z,56.27
2018-07-20T15:59:35.725Z,78.07
2018-07-20T16:02:04.029Z,63.33
2018-07-20T16:04:32.116Z,69.58
2018-07-20T16:07:00.231Z,69.67
2018-07-20T16:09:28.324Z,72.58
2018-07-20T16:11:56.379Z,67.70
2018-07-20T16:14:24.424Z,70.92
2018-07-20T16:16:52.468Z,68.22
2018-07-20T16:19:20.530Z,75.03
2018-07-20T16:21:48.572Z,56.65
2018-07-20T16:24:16.629Z,70.25
2018-07-20T16:26:44.692Z,83.58
2018-07-20T16:29:12.747Z,76.90
2018-07-20T16:31:40.788Z,68.47
2018-07-20T16:34:08.876Z,73.92
2018-07-20T16:36:36.939Z,43.13
2018-07-20T16:39:07.532Z,47.08
2018-07-20T16:41:35.571Z,57.73
2018-07-20T16:44:03.628Z,53.85
2018-07-20T16:46:31.676Z,68.45
2018-07-20T16:48:59.737Z,48.25
2018-07-20T16:51:27.836Z,58.58
2018-07-20T16:53:55.887Z,46.15
2018-07-20T16:56:23.939Z,46.15
2018-07-20T16:58:51.996Z,37.75
2018-07-20T17:01:20.060Z,57.78
2018-07-20T17:03:48.117Z,51.40
2018-07-20T17:06:16.172Z,39.78
2018-07-20T17:08:44.224Z,41.90
2018-07-20T17:11:12.265Z,32.98
2018-07-20T17:13:40.331Z,44.70
2018-07-20T17:16:08.371Z,39.98
2018-07-20T17:18:36.423Z,65.35
2018-07-20T17:21:04.476Z,51.83
2018-07-20T17:23:32.524Z,60.78
2018-07-20T17:26:00.676Z,43.05
2018-07-20T17:28:28.716Z,67.40
2018-07-20T17:30:56.764Z,56.53
2018-07-20T17:33:24.875Z,47.93
2018-07-20T17:35:52.937Z,34.18
2018-07-20T17:38:20.989Z,52.25
2018-07-20T17:40:49.067Z,50.15
2018-07-20T17:43:17.116Z,48.87
2018-07-20T17:45:45.215Z,32.83
2018-07-20T17:48:13.267Z,41.15
2018-07-20T17:50:41.349Z,35.05
2018-07-20T17:53:09.395Z,34.65
2018-07-20T17:55:37.487Z,39.58
2018-07-20T17:58:05.531Z,49.70
2018-07-20T18:00:33.608Z,51.40
2018-07-20T18:03:01.695Z,42.33
2018-07-20T18:05:30.096Z,46.28
2018-07-20T18:07:58.159Z,38.20
2018-07-20T18:10:26.226Z,48.58
2018-07-20T18:12:54.252Z,38.33
2018-07-20T18:15:22.380Z,67.12
2018-07-20T18:17:50.459Z,51.33
2018-07-20T18:20:18.484Z,61.65
2018-07-20T18:22:46.559Z,48.42
2018-07-20T18:25:15.479Z,49.58
2018-07-20T18:27:43.538Z,37.05
2018-07-20T18:30:11.591Z,39.63
2018-07-20T18:32:39.662Z,47.58
2018-07-20T18:35:07.716Z,37.48
2018-07-20T18:37:35.755Z,30.37
2018-07-20T18:40:03.820Z,39.63
2018-07-20T18:42:31.854Z,41.68
2018-07-20T18:44:59.904Z,34.10
2018-07-20T18:47:27.963Z,31.30
2018-07-20T18:49:56.019Z,38.05
2018-07-20T18:52:24.079Z,37.42
2018-07-20T18:54:52.115Z,30.35
2018-07-20T18:57:20.144Z,42.50
2018-07-20T18:59:48.220Z,46.80
2018-07-20T19:02:16.228Z,22.50
2018-07-20T19:04:44.286Z,24.82
2018-07-20T19:07:12.342Z,18.90
2018-07-20T19:09:40.400Z,15.00
2018-07-20T19:12:08.444Z,18.40
2018-07-20T19:14:36.492Z,12.90
2018-07-20T19:17:04.582Z,15.83
2018-07-20T19:19:32.604Z,24.45
2018-07-20T19:22:00.636Z,18.70
2018-07-20T19:24:28.712Z,20.72
2018-07-20T19:26:56.784Z,16.45
2018-07-20T19:29:24.825Z,17.45
2018-07-20T19:31:52.887Z,15.30
2018-07-20T19:34:20.980Z,12.40
2018-07-20T19:36:48.968Z,14.95
2018-07-20T19:39:17.008Z,17.42
2018-07-20T19:41:45.073Z,20.23
2018-07-20T19:44:13.112Z,17.67
2018-07-20T19:46:41.178Z,14.05
2018-07-20T19:49:09.256Z,21.87
2018-07-20T19:51:37.309Z,18.30
2018-07-20T19:54:05.512Z,16.05
2018-07-20T19:56:33.584Z,16.62
2018-07-20T19:59:01.648Z,17.73
2018-07-20T20:01:29.704Z,18.30
2018-07-20T20:03:57.776Z,13.25
2018-07-20T20:06:25.824Z,22.17
2018-07-20T20:08:53.863Z,13.38
2018-07-20T20:11:21.951Z,17.67
2018-07-20T20:13:50.020Z,18.37
2018-07-20T20:16:18.100Z,13.60
2018-07-20T20:18:46.150Z,13.43
2018-07-20T20:21:14.251Z,14.30
2018-07-20T20:23:42.311Z,14.78
2018-07-20T20:26:10.368Z,20.17
2018-07-20T20:28:38.427Z,12.33
2018-07-20T20:31:06.542Z,15.75
2018-07-20T20:33:34.580Z,10.80
2018-07-20T20:36:02.671Z,18.45
2018-07-20T20:38:30.704Z,16.62
2018-07-20T20:40:58.784Z,19.40
2018-07-20T20:43:26.992Z,14.58
2018-07-20T20:45:55.079Z,22.40
2018-07-20T20:48:23.128Z,15.70
2018-07-20T20:50:51.215Z,18.45
2018-07-20T20:53:19.232Z,18.65
2018-07-20T20:55:47.271Z,19.85
2018-07-20T20:58:15.320Z,19.52
2018-07-20T21:00:43.380Z,16.70
2018-07-20T21:03:11.441Z,14.38
2018-07-20T21:05:39.492Z,13.72
2018-07-20T21:08:07.524Z,18.77
2018-07-20T21:10:35.577Z,17.42
2018-07-20T21:13:04.437Z,26.73
2018-07-20T21:15:32.503Z,17.40
2018-07-20T21:18:00.545Z,22.32
2018-07-20T21:20:28.624Z,19.95
2018-07-20T21:22:56.692Z,14.93
2018-07-20T21:25:24.793Z,19.80
2018-07-20T21:27:52.836Z,22.10
2018-07-20T21:30:20.868Z,21.68
2018-07-20T21:32:48.944Z,18.05
2018-07-20T21:35:16.980Z,24.43
2018-07-20T21:37:45.053Z,22.70
2018-07-20T21:40:13.118Z,18.25
2018-07-20T21:42:41.184Z,17.50
2018-07-20T21:45:09.219Z,14.60
2018-07-20T21:47:37.259Z,16.42
2018-07-20T21:50:05.319Z,15.58
2018-07-20T21:52:33.380Z,13.62
2018-07-20T21:55:01.645Z,15.28
2018-07-20T21:57:29.751Z,14.50
2018-07-20T21:59:57.787Z,17.60
2018-07-20T22:02:25.842Z,14.73
2018-07-20T22:04:53.949Z,11.78
2018-07-20T22:07:21.992Z,12.70
2018-07-20T22:09:50.024Z,10.10
2018-07-20T22:12:18.132Z,12.40
2018-07-20T22:14:46.167Z,10.45
2018-07-20T22:17:14.236Z,13.08
2018-07-20T22:19:42.280Z,14.15
2018-07-20T22:22:10.327Z,14.60
2018-07-20T22:24:38.396Z,12.95
2018-07-20T22:27:06.435Z,9.30
2018-07-20T22:29:34.499Z,10.98
2018-07-20T22:32:02.540Z,7.05
2018-07-20T22:34:30.576Z,10.45
2018-07-20T22:36:58.639Z,10.82
2018-07-20T22:39:26.676Z,14.23
2018-07-20T22:41:54.739Z,10.82
2018-07-20T22:44:22.804Z,11.45
2018-07-20T22:46:50.871Z,9.83
2018-07-20T22:49:18.903Z,10.40
2018-07-20T22:51:46.959Z,10.70
2018-07-20T22:54:15.008Z,12.70
2018-07-20T22:56:43.052Z,11.18
2018-07-20T22:59:11.127Z,13.22
2018-07-20T23:01:39.199Z,10.55
2018-07-20T23:04:07.244Z,10.90
2018-07-20T23:06:35.300Z,13.95
2018-07-20T23:09:03.960Z,7.70
2018-07-20T23:11:31.991Z,6.62
2018-07-20T23:14:00.037Z,7.97
2018-07-20T23:16:28.068Z,11.68
2018-07-20T23:18:56.113Z,10.48
2018-07-20T23:21:24.169Z,9.93
2018-07-20T23:23:52.212Z,9.43
2018-07-20T23:26:20.243Z,9.63
2018-07-20T23:28:48.285Z,7.60
2018-07-20T23:31:16.320Z,5.55
2018-07-20T23:33:44.362Z,8.50
2018-07-20T23:36:12.407Z,8.95
2018-07-20T23:38:40.476Z,8.50
2018-07-20T23:41:08.508Z,13.03
2018-07-20T23:43:36.555Z,10.38
2018-07-20T23:46:04.585Z,8.65
2018-07-20T23:48:32.636Z,13.45
2018-07-20T23:51:00.728Z,9.13
2018-07-20T23:53:28.760Z,7.90
2018-07-20T23:55:56.823Z,9.08
2018-07-20T23:58:24.868Z,10.18
